createdAt,value
2023-01-02T00:00:14.531Z,8.2
2023-01-02T00:30:25.904Z,8.6
2023-01-02T01:00:27.332Z,8.3
2023-01-02T01:30:03.737Z,8.4
2023-01-02T02:00:20.194Z,7.8
2023-01-02T02:30:20.127Z,7.8
2023-01-02T03:30:16.339Z,7.9
2023-01-02T04:00:23.927Z,8.2
2023-01-02T04:30:23.517Z,8
2023-01-02T05:00:08.951Z,8.3
2023-01-02T05:30:01.556Z,8.2
2023-01-02T06:00:01.439Z,8.1
2023-01-02T06:30:22.985Z,7.8
2023-01-02T07:00:08.906Z,7.5
2023-01-02T07:30:23.858Z,7.7
2023-01-02T08:00:26.188Z,7.8
2023-01-02T08:30:11.828Z,8.2
2023-01-02T09:00:27.105Z,8.9
2023-01-02T09:30:05.601Z,10.3
2023-01-02T10:00:29.360Z,12
2023-01-02T10:30:28.573Z,12.9
2023-01-02T11:00:13.611Z,13.3
2023-01-02T11:30:21.248Z,13.8
2023-01-02T12:00:15.941Z,18.3
2023-01-02T12:30:17.435Z,16.8
2023-01-02T13:00:03.313Z,14.1
2023-01-02T13:30:20.264Z,13.4
2023-01-02T14:00:04.452Z,12.9
2023-01-02T14:30:26.709Z,12.1
2023-01-02T15:00:26.821Z,9.8
2023-01-02T15:30:12.184Z,8.9
2023-01-02T16:00:04.021Z,8.4
2023-01-02T16:30:21.427Z,8.9
2023-01-02T17:30:15.400Z,8.5
2023-01-02T18:00:22.664Z,8.3
2023-01-02T18:30:22.691Z,8
2023-01-02T19:00:08.649Z,7.7
2023-01-02T19:30:20.563Z,7.7
2023-01-02T20:00:01.457Z,7.3
2023-01-02T20:30:22.150Z,7.1
2023-01-02T21:00:02.346Z,7.2
2023-01-02T22:00:19.937Z,7.7
2023-01-02T22:30:24.657Z,7.7
2023-01-02T23:00:15.008Z,7.3
2023-01-02T23:30:29.594Z,6.5
